Terminal Aerodrome Forecast
Issued by NWS

Home | Current Version | Previous Version | Text Only | Print | Product List | Glossary On
Versions: 1 2 3 4 5 6 7 8 9 10 11 12
000
FTUS45 KPSR 031730
TAFBLH
TAF
KBLH 031730Z 0318/0418 18006KT P6SM SKC
     FM032000 19014KT P6SM FEW150
     FM040600 17008KT P6SM FEW120 SCT200=

USA.gov is the U.S. government's official web portal to all federal, state and local government web resources and services.